Time;durP1;ratioP1;P1;durP2;ratioP2;P2;SDS_P1;SDS_P2;PMS_P1;PMS_P2;Temp;Humidity;BMP_temperature;BMP_pressure;BME280_temperature;BME280_humidity;BME280_pressure;Samples;Min_cycle;Max_cycle;Signal;HPM_P1;HPM_P2
2021/08/29 00:02:16;;;;;;;13.15;8.15;;;13.60;99.90;;;;;;5071882;28;20403;-56
2021/08/29 00:04:42;;;;;;;13.00;7.63;;;13.60;99.90;;;;;;5071695;28;20430;-56
2021/08/29 00:07:08;;;;;;;15.43;7.30;;;13.50;99.90;;;;;;5071936;28;20738;-57
2021/08/29 00:09:34;;;;;;;14.55;8.30;;;13.50;99.90;;;;;;5071627;28;20873;-56
2021/08/29 00:12:00;;;;;;;12.63;7.60;;;13.50;99.90;;;;;;5053150;28;20384;-57
2021/08/29 00:14:26;;;;;;;14.40;7.60;;;13.60;99.90;;;;;;5071833;28;20557;-56
2021/08/29 00:16:51;;;;;;;13.18;7.28;;;13.60;99.90;;;;;;5070709;28;20499;-57
2021/08/29 00:19:17;;;;;;;13.30;7.80;;;13.70;99.90;;;;;;5071936;28;20858;-56
2021/08/29 00:21:44;;;;;;;13.98;7.90;;;13.80;99.90;;;;;;5070261;28;20388;-57
2021/08/29 00:24:12;;;;;;;11.90;7.35;;;13.80;99.90;;;;;;5071328;28;20382;-57
2021/08/29 00:26:37;;;;;;;12.57;7.45;;;13.90;99.90;;;;;;5071547;28;20379;-56
2021/08/29 00:29:03;;;;;;;12.60;7.40;;;13.90;99.90;;;;;;5070856;28;20396;-57
2021/08/29 00:31:29;;;;;;;12.60;7.28;;;14.00;99.90;;;;;;5071450;28;20376;-56
2021/08/29 00:33:56;;;;;;;14.27;7.53;;;14.00;99.90;;;;;;5071372;28;20396;-57
2021/08/29 00:36:21;;;;;;;13.32;7.03;;;14.00;99.90;;;;;;5071807;28;20383;-57
2021/08/29 00:38:47;;;;;;;12.00;6.70;;;14.00;99.90;;;;;;5070585;28;20396;-57
2021/08/29 00:41:13;;;;;;;12.55;7.15;;;14.10;99.90;;;;;;5071678;28;20388;-57
2021/08/29 00:43:41;;;;;;;10.80;6.60;;;14.10;99.90;;;;;;5069356;28;20480;-57
2021/08/29 00:46:08;;;;;;;12.88;7.00;;;14.30;99.90;;;;;;5070130;28;20395;-56
2021/08/29 00:48:34;;;;;;;13.45;7.45;;;14.30;99.90;;;;;;5071328;28;20388;-56
2021/08/29 00:51:00;;;;;;;12.40;7.50;;;14.30;99.90;;;;;;5070056;28;20410;-57
2021/08/29 00:53:26;;;;;;;11.67;6.90;;;14.40;99.90;;;;;;5071232;28;20413;-56
2021/08/29 00:55:52;;;;;;;12.13;7.72;;;15.80;99.90;;;;;;5070405;28;20403;-56
2021/08/29 00:58:25;;;;;;;13.93;8.10;;;14.40;99.90;;;;;;5070941;28;20902;-56
2021/08/29 01:00:52;;;;;;;13.07;7.60;;;14.30;99.90;;;;;;5070066;28;20451;-57
2021/08/29 01:03:24;;;;;;;13.05;7.97;;;14.40;99.90;;;;;;5071112;28;20391;-57
2021/08/29 01:06:22;;;;;;;13.45;7.57;;;14.50;99.90;;;;;;5070155;28;20379;-56
2021/08/29 01:08:54;;;;;;;12.90;7.35;;;14.50;99.90;;;;;;5060562;28;20912;-57
2021/08/29 01:11:25;;;;;;;14.35;8.10;;;14.50;99.90;;;;;;5071125;28;20403;-56
2021/08/29 01:13:57;;;;;;;13.25;7.90;;;14.50;99.90;;;;;;5070117;28;20888;-57
2021/08/29 01:16:23;;;;;;;12.00;7.32;;;14.40;99.90;;;;;;5070265;28;20414;-56
2021/08/29 01:18:52;;;;;;;12.90;7.70;;;14.40;99.90;;;;;;5068529;28;20481;-57
2021/08/29 01:21:27;;;;;;;14.05;7.72;;;14.40;99.90;;;;;;5070340;28;20384;-57
2021/08/29 01:23:57;;;;;;;13.60;8.00;;;14.40;99.90;;;;;;5069792;28;20434;-56
2021/08/29 01:26:45;;;;;;;13.30;7.90;;;14.40;99.90;;;;;;5070327;28;20434;-56
2021/08/29 01:29:13;;;;;;;14.48;7.82;;;14.30;99.90;;;;;;5070020;28;20776;-57
2021/08/29 01:31:40;;;;;;;12.98;7.63;;;14.30;99.90;;;;;;5070123;28;20730;-56
2021/08/29 01:34:12;;;;;;;13.30;7.72;;;14.20;99.90;;;;;;5069636;28;20509;-56
2021/08/29 01:36:41;;;;;;;15.00;7.88;;;14.30;99.90;;;;;;5070338;28;20411;-56
2021/08/29 01:39:07;;;;;;;13.50;7.55;;;14.40;99.90;;;;;;5069399;28;21223;-57
2021/08/29 01:41:36;;;;;;;13.98;8.23;;;14.40;99.90;;;;;;5070235;28;20380;-56
2021/08/29 01:44:04;;;;;;;14.15;8.23;;;14.40;99.90;;;;;;5069145;28;20376;-56
2021/08/29 01:46:30;;;;;;;13.30;8.10;;;14.30;99.90;;;;;;5069969;28;20391;-56
2021/08/29 01:48:57;;;;;;;13.55;8.07;;;14.40;99.90;;;;;;5069518;28;20380;-56
2021/08/29 01:51:23;;;;;;;12.95;7.18;;;14.30;99.90;;;;;;5069761;28;20877;-56
2021/08/29 01:53:49;;;;;;;12.47;7.03;;;14.40;99.90;;;;;;5069182;28;20577;-56
2021/08/29 01:56:14;;;;;;;12.83;7.07;;;14.40;99.90;;;;;;5069207;28;20372;-56
2021/08/29 01:58:40;;;;;;;11.40;7.00;;;14.30;99.90;;;;;;5070005;28;20899;-56
2021/08/29 02:01:11;;;;;;;12.60;7.00;;;14.30;99.90;;;;;;5069130;28;21022;-56
2021/08/29 02:03:38;;;;;;;12.07;7.17;;;14.30;99.90;;;;;;5068658;28;20522;-56
2021/08/29 02:06:07;;;;;;;12.60;7.57;;;15.90;99.90;;;;;;5069080;28;20392;-56
2021/08/29 02:08:36;;;;;;;12.35;7.03;;;14.30;99.90;;;;;;5070148;28;20472;-56
2021/08/29 02:11:04;;;;;;;11.20;7.40;;;14.40;99.90;;;;;;5069025;28;20391;-57
2021/08/29 02:13:33;;;;;;;12.82;7.60;;;14.60;99.90;;;;;;5069857;28;20392;-57
2021/08/29 02:16:08;;;;;;;10.75;6.35;;;14.60;99.90;;;;;;5068573;28;20740;-56
2021/08/29 02:18:35;;;;;;;12.05;7.40;;;14.50;99.90;;;;;;5069896;28;20898;-57
2021/08/29 02:21:01;;;;;;;13.13;7.63;;;14.40;99.90;;;;;;5067797;28;20387;-56
2021/08/29 02:23:29;;;;;;;12.30;7.40;;;14.50;99.90;;;;;;5069674;28;20387;-56
2021/08/29 02:25:55;;;;;;;12.80;7.60;;;14.40;99.90;;;;;;5068630;28;20388;-56
2021/08/29 02:28:23;;;;;;;14.50;7.00;;;14.30;99.90;;;;;;5069492;28;20414;-57
2021/08/29 02:30:49;;;;;;;13.13;7.45;;;14.20;99.90;;;;;;5068704;28;20387;-56
2021/08/29 02:33:15;;;;;;;12.43;7.13;;;14.30;99.90;;;;;;5069648;28;20441;-56
2021/08/29 02:35:42;;;;;;;12.30;7.60;;;14.20;99.90;;;;;;5069498;28;20915;-56
2021/08/29 02:38:09;;;;;;;11.67;7.10;;;14.30;99.90;;;;;;5068744;28;20533;-57
2021/08/29 02:40:38;;;;;;;12.25;6.85;;;14.30;99.90;;;;;;5069568;28;20376;-57
2021/08/29 02:43:04;;;;;;;13.85;7.20;;;14.30;99.90;;;;;;5068612;28;20376;-57
2021/08/29 02:45:30;;;;;;;11.65;7.32;;;14.20;99.90;;;;;;5069748;28;20391;-57
2021/08/29 02:47:56;;;;;;;12.88;7.50;;;14.20;99.90;;;;;;5068413;28;20379;-57
2021/08/29 02:50:22;;;;;;;13.50;7.70;;;14.10;99.90;;;;;;5068499;28;20376;-57
2021/08/29 02:52:49;;;;;;;12.93;8.25;;;14.10;99.90;;;;;;5068242;28;20376;-57
2021/08/29 02:55:18;;;;;;;11.35;6.68;;;14.20;99.90;;;;;;5068622;28;20465;-57
2021/08/29 02:57:46;;;;;;;12.50;7.22;;;14.20;99.90;;;;;;5069050;28;20376;-57
2021/08/29 03:00:13;;;;;;;12.88;7.05;;;14.20;99.90;;;;;;5068711;28;20528;-57
2021/08/29 03:02:43;;;;;;;10.85;6.65;;;14.20;99.90;;;;;;5067915;28;20907;-57
2021/08/29 03:05:10;;;;;;;10.63;6.40;;;14.30;99.90;;;;;;5068417;28;20386;-57
2021/08/29 03:07:36;;;;;;;12.05;6.80;;;14.30;99.90;;;;;;5071459;28;20394;-57
2021/08/29 03:10:02;;;;;;;12.77;7.13;;;14.30;99.90;;;;;;5072445;28;20388;-57
2021/08/29 03:12:28;;;;;;;11.70;7.00;;;14.30;99.90;;;;;;5073176;28;20379;-57
2021/08/29 03:14:54;;;;;;;11.57;6.20;;;14.20;99.90;;;;;;5072070;28;20383;-57
2021/08/29 03:17:21;;;;;;;11.27;6.57;;;14.20;99.90;;;;;;5072851;28;20443;-57
2021/08/29 03:19:50;;;;;;;11.25;6.40;;;14.30;99.90;;;;;;5072605;28;20413;-57
2021/08/29 03:22:16;;;;;;;11.63;6.55;;;14.30;99.90;;;;;;5073264;28;20387;-57
2021/08/29 03:24:42;;;;;;;10.98;6.30;;;14.30;99.90;;;;;;5072863;28;20396;-57
2021/08/29 03:27:09;;;;;;;11.93;6.50;;;14.30;99.90;;;;;;5072037;28;20388;-57
2021/08/29 03:29:34;;;;;;;12.43;6.90;;;14.40;99.90;;;;;;5054963;28;20395;-57
2021/08/29 03:32:00;;;;;;;10.85;6.10;;;14.30;99.90;;;;;;5071858;28;20760;-57
2021/08/29 03:34:28;;;;;;;12.38;6.78;;;14.30;99.90;;;;;;5072768;28;20462;-57
2021/08/29 03:36:55;;;;;;;12.13;6.30;;;14.30;99.90;;;;;;5072068;28;20394;-57
2021/08/29 03:39:25;;;;;;;10.73;6.13;;;14.30;99.90;;;;;;5072304;28;20486;-57
2021/08/29 03:41:55;;;;;;;11.07;6.73;;;14.30;99.90;;;;;;5071801;28;20379;-57
2021/08/29 03:44:21;;;;;;;10.15;6.20;;;14.30;99.90;;;;;;5072367;28;20754;-58
2021/08/29 03:46:47;;;;;;;10.82;6.00;;;14.30;99.90;;;;;;5071973;28;20426;-57
2021/08/29 03:49:13;;;;;;;10.70;6.47;;;14.20;99.90;;;;;;5072160;28;20445;-57
2021/08/29 03:51:41;;;;;;;12.20;6.95;;;14.20;99.90;;;;;;5072094;28;20388;-57
2021/08/29 03:54:08;;;;;;;13.57;6.95;;;14.20;99.90;;;;;;5071798;28;20380;-57
2021/08/29 03:56:37;;;;;;;14.50;6.80;;;14.20;99.90;;;;;;5072151;28;20383;-57
2021/08/29 03:59:03;;;;;;;13.17;6.00;;;14.10;99.90;;;;;;5071196;28;20506;-57
2021/08/29 04:01:29;;;;;;;12.40;6.75;;;14.00;99.90;;;;;;5070689;28;20408;-57
2021/08/29 04:03:55;;;;;;;12.20;6.50;;;14.00;99.90;;;;;;5070688;28;20394;-57
2021/08/29 04:06:24;;;;;;;11.98;6.80;;;14.00;99.90;;;;;;5071986;28;20846;-57
2021/08/29 04:08:53;;;;;;;11.23;6.20;;;13.90;99.90;;;;;;5071357;28;20395;-57
2021/08/29 04:11:27;;;;;;;10.75;6.32;;;13.80;99.90;;;;;;5072090;28;20386;-57
2021/08/29 04:13:54;;;;;;;10.60;6.38;;;13.80;99.90;;;;;;5071479;28;20473;-57
2021/08/29 04:16:20;;;;;;;11.60;6.53;;;13.80;99.90;;;;;;5071664;28;20955;-56
2021/08/29 04:18:47;;;;;;;11.60;6.40;;;13.80;99.90;;;;;;5070841;28;20407;-57
2021/08/29 04:21:18;;;;;;;11.32;6.70;;;13.90;99.90;;;;;;5071453;28;20391;-57
2021/08/29 04:23:44;;;;;;;12.63;7.13;;;13.90;99.90;;;;;;5071992;28;20466;-57
2021/08/29 04:26:10;;;;;;;11.23;6.70;;;14.00;99.90;;;;;;5071016;28;20463;-58
2021/08/29 04:28:36;;;;;;;11.98;7.30;;;14.00;99.90;;;;;;5068426;28;20869;-57
2021/08/29 04:31:10;;;;;;;11.27;6.80;;;14.00;99.90;;;;;;5066712;28;20376;-57
2021/08/29 04:33:36;;;;;;;11.45;7.05;;;13.90;99.90;;;;;;5054109;28;20389;-57
2021/08/29 04:36:09;;;;;;;12.95;7.90;;;14.00;99.90;;;;;;5071558;28;20421;-58
2021/08/29 04:38:36;;;;;;;12.65;7.40;;;14.00;99.90;;;;;;5071368;28;20519;-58
2021/08/29 04:41:02;;;;;;;12.35;7.15;;;14.00;99.90;;;;;;5070769;28;20384;-57
2021/08/29 04:43:28;;;;;;;12.13;7.53;;;14.00;99.90;;;;;;5071800;28;20390;-57
2021/08/29 04:45:54;;;;;;;12.68;7.35;;;14.90;99.90;;;;;;5070558;28;20388;-57
2021/08/29 04:48:19;;;;;;;11.75;7.28;;;13.90;99.90;;;;;;5071652;28;20391;-57
2021/08/29 04:50:45;;;;;;;10.80;7.30;;;12.20;99.90;;;;;;5071288;28;20391;-57
2021/08/29 04:53:11;;;;;;;17.02;7.80;;;13.90;99.90;;;;;;5070624;28;20384;-57
2021/08/29 04:55:36;;;;;;;18.00;7.63;;;14.00;99.90;;;;;;5069160;28;20759;-57
2021/08/29 04:58:02;;;;;;;11.63;6.90;;;14.00;99.90;;;;;;5061096;28;20380;-57
2021/08/29 05:00:28;;;;;;;15.07;7.60;;;14.00;99.90;;;;;;5052215;28;20409;-57
2021/08/29 05:02:54;;;;;;;12.25;7.30;;;14.10;99.90;;;;;;5061725;28;20384;-57
2021/08/29 05:05:19;;;;;;;11.90;6.90;;;14.10;99.90;;;;;;5052844;28;20397;-57
2021/08/29 05:07:45;;;;;;;11.38;7.10;;;14.10;99.90;;;;;;5065664;28;20381;-57
2021/08/29 05:10:11;;;;;;;11.20;6.60;;;14.00;99.90;;;;;;5065355;28;20757;-57
2021/08/29 05:12:36;;;;;;;14.20;6.85;;;14.60;99.90;;;;;;5070891;28;20380;-56
2021/08/29 05:15:03;;;;;;;11.50;6.32;;;14.00;99.90;;;;;;5069962;28;20920;-56
2021/08/29 05:17:29;;;;;;;14.02;6.10;;;14.00;99.90;;;;;;5070997;28;20889;-58
2021/08/29 05:19:54;;;;;;;10.77;6.05;;;14.00;99.90;;;;;;5069798;28;20508;-57
2021/08/29 05:22:20;;;;;;;11.63;6.23;;;14.00;99.90;;;;;;5071214;28;20388;-57
2021/08/29 05:24:46;;;;;;;11.05;6.40;;;13.90;99.90;;;;;;5071022;28;20383;-57
2021/08/29 05:27:11;;;;;;;12.75;6.68;;;14.00;99.90;;;;;;5070085;28;20434;-58
2021/08/29 05:29:37;;;;;;;10.10;6.10;;;14.00;99.90;;;;;;5060299;28;20910;-58
2021/08/29 05:32:03;;;;;;;10.10;6.10;;;14.00;99.90;;;;;;5062050;28;20409;-57
2021/08/29 05:34:28;;;;;;;9.57;5.47;;;14.10;99.90;;;;;;5050910;28;20393;-57
2021/08/29 05:36:54;;;;;;;11.00;5.80;;;14.10;99.90;;;;;;5049721;28;20491;-58
2021/08/29 05:39:20;;;;;;;9.10;5.35;;;14.00;99.90;;;;;;5050414;28;20459;-57
2021/08/29 05:41:46;;;;;;;9.93;5.13;;;14.00;99.90;;;;;;5051665;28;20406;-57
2021/08/29 05:44:12;;;;;;;9.95;5.45;;;14.00;99.90;;;;;;5058043;28;20408;-57
2021/08/29 05:46:38;;;;;;;9.20;5.35;;;14.00;99.90;;;;;;5063060;28;20965;-57
2021/08/29 05:49:03;;;;;;;8.60;5.20;;;13.90;99.90;;;;;;5052480;28;20418;-58
2021/08/29 05:51:29;;;;;;;8.52;4.60;;;13.90;99.90;;;;;;5062160;28;20480;-57
2021/08/29 05:53:54;;;;;;;9.13;5.00;;;13.90;99.90;;;;;;5064189;28;20433;-57
2021/08/29 05:56:20;;;;;;;8.60;5.10;;;14.00;99.90;;;;;;5071557;28;20445;-57
2021/08/29 05:58:46;;;;;;;8.50;4.63;;;14.10;99.90;;;;;;5070732;28;20404;-57
2021/08/29 06:01:13;;;;;;;7.60;4.20;;;13.90;99.90;;;;;;5069306;28;21128;-58
2021/08/29 06:03:38;;;;;;;7.30;4.05;;;13.90;99.90;;;;;;5069535;28;20402;-58
2021/08/29 06:06:04;;;;;;;7.03;4.10;;;13.90;99.90;;;;;;5068796;28;20372;-57
2021/08/29 06:08:30;;;;;;;7.00;3.88;;;13.80;99.90;;;;;;5069979;28;20383;-57
2021/08/29 06:10:56;;;;;;;7.03;3.50;;;13.90;99.90;;;;;;5068643;28;20376;-57
2021/08/29 06:13:22;;;;;;;6.07;3.30;;;13.80;99.90;;;;;;5069385;28;20386;-57
2021/08/29 06:15:48;;;;;;;6.70;3.70;;;13.80;99.90;;;;;;5068999;28;20391;-56
2021/08/29 06:18:13;;;;;;;6.23;3.37;;;13.80;99.90;;;;;;5063346;28;20424;-58
2021/08/29 06:20:39;;;;;;;6.95;3.30;;;13.90;99.90;;;;;;5061130;28;20819;-58
2021/08/29 06:23:05;;;;;;;6.17;3.00;;;13.90;99.90;;;;;;5048605;28;20913;-58
2021/08/29 06:25:30;;;;;;;6.50;3.30;;;13.90;99.90;;;;;;5066907;28;20476;-57
2021/08/29 06:27:56;;;;;;;8.32;3.70;;;13.90;99.90;;;;;;5068548;28;20382;-62
2021/08/29 06:30:22;;;;;;;5.57;2.90;;;13.90;99.90;;;;;;5068801;28;20402;-57
2021/08/29 06:32:47;;;;;;;5.80;2.90;;;14.00;99.90;;;;;;5067870;28;20396;-57
2021/08/29 06:35:13;;;;;;;7.60;3.20;;;14.00;99.90;;;;;;5067513;28;20379;-57
2021/08/29 06:37:39;;;;;;;5.40;2.50;;;14.00;99.90;;;;;;5068250;28;20746;-57
2021/08/29 06:40:05;;;;;;;5.18;2.50;;;14.00;99.90;;;;;;5067934;28;20410;-57
2021/08/29 06:42:31;;;;;;;6.65;2.95;;;13.90;99.90;;;;;;5068465;28;20406;-57
2021/08/29 06:44:57;;;;;;;5.53;2.65;;;14.00;99.90;;;;;;5067565;28;20453;-57
2021/08/29 06:47:23;;;;;;;4.80;2.30;;;14.00;99.90;;;;;;5068713;28;20876;-57
2021/08/29 06:49:48;;;;;;;5.47;2.50;;;13.90;99.90;;;;;;5069387;28;20387;-57
2021/08/29 06:52:14;;;;;;;5.30;2.60;;;14.00;99.90;;;;;;5069134;28;20802;-58
2021/08/29 06:54:39;;;;;;;8.20;2.70;;;14.10;99.90;;;;;;5088555;28;20423;-58
2021/08/29 06:57:05;;;;;;;4.60;2.00;;;14.20;99.90;;;;;;5068122;28;20440;-58
2021/08/29 06:59:31;;;;;;;5.85;2.30;;;14.10;99.90;;;;;;5069119;28;20831;-58
2021/08/29 07:01:56;;;;;;;4.30;2.00;;;14.10;99.90;;;;;;5067760;28;20388;-58
2021/08/29 07:04:22;;;;;;;5.80;2.30;;;14.00;99.90;;;;;;5069689;28;20850;-57
2021/08/29 07:06:48;;;;;;;4.57;2.10;;;14.10;99.90;;;;;;5068768;28;20406;-58
2021/08/29 07:09:13;;;;;;;6.00;2.60;;;14.10;99.90;;;;;;5066528;28;20387;-58
2021/08/29 07:11:39;;;;;;;4.30;2.00;;;14.30;99.90;;;;;;5069038;28;20384;-57
2021/08/29 07:14:05;;;;;;;4.00;1.70;;;14.40;99.90;;;;;;5068022;28;20383;-57
2021/08/29 07:16:30;;;;;;;4.72;2.20;;;14.40;99.90;;;;;;5068028;28;20440;-57
2021/08/29 07:18:57;;;;;;;4.20;1.83;;;14.50;99.90;;;;;;5066908;28;20774;-57
2021/08/29 07:21:23;;;;;;;4.90;2.20;;;14.60;99.90;;;;;;5063276;28;20394;-57
2021/08/29 07:23:49;;;;;;;4.63;1.80;;;14.80;99.90;;;;;;5070224;28;20404;-57
2021/08/29 07:26:15;;;;;;;4.80;1.90;;;14.80;99.90;;;;;;5069166;28;20467;-58
2021/08/29 07:28:42;;;;;;;4.70;2.00;;;14.80;99.90;;;;;;5067298;28;20437;-57
2021/08/29 07:31:08;;;;;;;4.38;1.98;;;14.70;99.90;;;;;;5065833;28;20412;-56
2021/08/29 07:33:34;;;;;;;4.47;1.98;;;14.90;99.90;;;;;;5058305;28;20855;-57
2021/08/29 07:35:59;;;;;;;4.30;1.83;;;14.90;99.90;;;;;;5057246;28;20396;-58
2021/08/29 07:38:25;;;;;;;4.75;1.92;;;14.90;99.90;;;;;;5055210;28;20421;-58
2021/08/29 07:40:50;;;;;;;4.82;2.08;;;14.90;99.90;;;;;;5060946;28;20471;-58
2021/08/29 07:43:16;;;;;;;4.30;1.80;;;15.00;99.90;;;;;;5060552;28;20394;-57
2021/08/29 07:45:42;;;;;;;5.40;1.77;;;15.00;99.90;;;;;;5065989;28;20419;-57
2021/08/29 07:48:07;;;;;;;4.80;2.05;;;15.00;99.90;;;;;;5065147;28;20423;-57
2021/08/29 07:50:33;;;;;;;4.57;2.10;;;15.20;99.90;;;;;;5062659;28;20955;-54
2021/08/29 07:52:59;;;;;;;5.10;2.30;;;15.20;99.90;;;;;;5066379;28;20388;-54
2021/08/29 07:55:24;;;;;;;6.20;2.03;;;15.40;99.90;;;;;;5071097;28;20393;-54
2021/08/29 07:57:50;;;;;;;4.70;2.07;;;15.50;99.90;;;;;;5071457;28;20380;-54
2021/08/29 08:00:16;;;;;;;5.68;2.40;;;15.60;99.90;;;;;;5068127;28;20406;-54
2021/08/29 08:02:42;;;;;;;4.50;2.20;;;15.70;99.90;;;;;;5071465;28;20388;-54
2021/08/29 08:05:08;;;;;;;6.47;2.25;;;15.70;99.90;;;;;;5070588;28;20380;-54
2021/08/29 08:07:33;;;;;;;4.53;2.10;;;15.70;99.90;;;;;;5071102;28;20391;-54
2021/08/29 08:09:59;;;;;;;6.30;2.10;;;15.60;99.90;;;;;;5070877;28;20802;-54
2021/08/29 08:12:25;;;;;;;6.65;2.40;;;15.90;99.90;;;;;;5071868;28;20376;-54
2021/08/29 08:14:50;;;;;;;5.07;2.00;;;16.00;99.90;;;;;;5070614;28;20383;-54
2021/08/29 08:17:17;;;;;;;6.30;2.40;;;16.00;99.90;;;;;;5070927;28;20426;-58
2021/08/29 08:19:42;;;;;;;5.18;2.20;;;16.10;99.90;;;;;;5071581;28;20421;-57
2021/08/29 08:22:08;;;;;;;4.40;2.10;;;16.10;99.90;;;;;;5073791;28;20457;-58
2021/08/29 08:24:34;;;;;;;5.00;2.40;;;16.10;99.90;;;;;;5069078;28;20380;-58
2021/08/29 08:26:59;;;;;;;5.70;2.90;;;16.00;99.90;;;;;;5063697;28;20415;-58
2021/08/29 08:29:26;;;;;;;6.07;3.30;;;15.90;99.90;;;;;;5069540;28;20387;-58
2021/08/29 08:31:52;;;;;;;6.25;3.33;;;16.00;99.90;;;;;;5080520;28;20389;-58
2021/08/29 08:34:18;;;;;;;7.13;3.78;;;15.80;99.90;;;;;;5068979;28;20434;-58
2021/08/29 08:36:44;;;;;;;8.30;5.10;;;15.90;99.90;;;;;;5068047;28;20400;-59
2021/08/29 08:39:09;;;;;;;7.20;4.20;;;15.80;99.90;;;;;;5072571;28;20899;-59
2021/08/29 08:41:35;;;;;;;8.03;4.70;;;15.80;99.90;;;;;;5074909;28;20513;-59
2021/08/29 08:44:01;;;;;;;8.57;5.13;;;15.90;99.90;;;;;;5067395;28;21138;-59
2021/08/29 08:46:27;;;;;;;8.97;5.07;;;15.90;99.90;;;;;;5069852;28;20967;-59
2021/08/29 08:48:54;;;;;;;8.38;5.18;;;16.00;99.90;;;;;;5069976;28;20806;-58
2021/08/29 08:51:28;;;;;;;8.90;5.25;;;16.10;99.90;;;;;;5070520;28;20380;-59
2021/08/29 08:53:55;;;;;;;10.40;5.30;;;16.20;99.90;;;;;;5067278;28;20380;-59
2021/08/29 08:56:23;;;;;;;9.20;4.00;;;16.20;99.90;;;;;;5070685;28;20865;-60
2021/08/29 08:58:49;;;;;;;5.75;2.90;;;16.20;99.90;;;;;;5070331;28;20412;-58
2021/08/29 09:01:15;;;;;;;4.90;2.13;;;16.00;99.90;;;;;;5069901;28;20411;-60
2021/08/29 09:03:41;;;;;;;4.35;1.70;;;15.90;99.90;;;;;;5070130;28;20380;-59
2021/08/29 09:06:08;;;;;;;3.95;1.50;;;15.70;99.90;;;;;;5068480;28;20396;-59
2021/08/29 09:08:35;;;;;;;4.50;1.67;;;15.90;99.90;;;;;;5070937;28;20773;-58
2021/08/29 09:11:02;;;;;;;3.70;1.37;;;15.50;99.90;;;;;;5061291;28;20423;-58
2021/08/29 09:13:47;;;;;;;4.30;1.60;;;15.50;99.90;;;;;;5064713;28;20395;-59
2021/08/29 09:16:15;;;;;;;4.35;1.40;;;15.60;99.90;;;;;;5066450;28;20484;-59
2021/08/29 09:18:50;;;;;;;4.57;2.00;;;15.60;99.90;;;;;;5061728;28;20798;-58
2021/08/29 09:21:37;;;;;;;5.57;2.58;;;15.70;99.90;;;;;;5059940;28;20484;-59
2021/08/29 09:24:11;;;;;;;5.70;3.10;;;15.80;99.90;;;;;;5066660;28;20479;-59
2021/08/29 09:26:44;;;;;;;6.40;3.50;;;15.80;99.90;;;;;;5061263;28;20755;-59
2021/08/29 09:29:21;;;;;;;7.43;3.55;;;15.90;99.90;;;;;;5053889;28;20560;-59
2021/08/29 09:31:48;;;;;;;6.72;4.30;;;16.10;99.90;;;;;;5066090;28;21051;-59
2021/08/29 09:34:18;;;;;;;6.90;4.00;;;16.10;99.90;;;;;;5062733;28;20969;-58
2021/08/29 09:36:44;;;;;;;6.93;3.00;;;16.10;99.90;;;;;;5064410;28;20404;-59
2021/08/29 09:39:13;;;;;;;5.82;3.30;;;16.20;99.90;;;;;;5055844;28;20411;-58
2021/08/29 09:41:40;;;;;;;6.68;3.58;;;16.30;99.90;;;;;;5069390;28;20388;-59
2021/08/29 09:44:10;;;;;;;8.50;4.20;;;16.40;99.90;;;;;;5068329;28;20746;-58
2021/08/29 09:46:57;;;;;;;7.45;4.10;;;16.50;99.90;;;;;;5069891;28;20434;-58
2021/08/29 09:49:28;;;;;;;7.70;4.50;;;16.80;99.90;;;;;;5061709;28;20873;-58
2021/08/29 09:51:55;;;;;;;6.78;4.00;;;17.00;99.90;;;;;;5068381;28;20947;-59
2021/08/29 09:54:30;;;;;;;8.05;3.85;;;17.20;99.90;;;;;;5067752;28;20387;-58
2021/08/29 09:56:56;;;;;;;7.38;4.57;;;17.10;99.90;;;;;;5068971;28;20384;-59
2021/08/29 09:59:40;;;;;;;6.45;3.85;;;17.10;99.90;;;;;;5069130;28;20411;-59
2021/08/29 10:02:06;;;;;;;8.90;4.60;;;16.90;99.90;;;;;;5068935;28;20586;-58
2021/08/29 10:04:32;;;;;;;5.80;3.20;;;16.80;99.90;;;;;;5069877;28;20387;-59
2021/08/29 10:07:18;;;;;;;6.23;3.33;;;16.70;99.90;;;;;;5068478;28;20392;-58
2021/08/29 10:09:46;;;;;;;6.00;3.35;;;16.70;99.90;;;;;;5068998;28;20415;-59
2021/08/29 10:12:13;;;;;;;6.40;3.88;;;16.70;99.90;;;;;;5068095;28;20383;-58
2021/08/29 10:14:40;;;;;;;7.50;4.10;;;16.60;99.90;;;;;;5069524;28;20397;-59
2021/08/29 10:17:07;;;;;;;6.40;3.80;;;16.50;99.90;;;;;;5066285;28;20557;-59
2021/08/29 10:19:35;;;;;;;6.15;3.90;;;16.40;99.90;;;;;;5069057;28;20437;-58
2021/08/29 10:22:01;;;;;;;6.13;3.77;;;16.40;99.90;;;;;;5068358;28;20888;-58
2021/08/29 10:24:32;;;;;;;6.60;3.70;;;16.40;99.90;;;;;;5069222;28;20379;-58
2021/08/29 10:27:13;;;;;;;6.53;3.85;;;16.40;99.90;;;;;;5068230;28;20406;-58
2021/08/29 10:29:43;;;;;;;6.53;4.05;;;16.50;99.90;;;;;;5069138;28;20489;-58
2021/08/29 10:32:18;;;;;;;6.43;4.27;;;16.60;99.90;;;;;;5068678;28;20421;-58
2021/08/29 10:34:44;;;;;;;6.97;3.95;;;16.80;99.90;;;;;;5069204;28;20437;-59
2021/08/29 10:37:10;;;;;;;5.28;3.33;;;16.60;99.90;;;;;;5068697;28;20771;-58
2021/08/29 10:39:37;;;;;;;5.97;3.50;;;16.40;99.90;;;;;;5068846;28;20800;-59
2021/08/29 10:42:04;;;;;;;6.30;3.88;;;16.30;99.90;;;;;;5067693;28;20403;-59
2021/08/29 10:44:29;;;;;;;6.13;4.03;;;16.50;99.90;;;;;;5068855;28;20419;-59
2021/08/29 10:46:56;;;;;;;5.45;3.22;;;16.60;99.90;;;;;;5068913;28;20888;-59
2021/08/29 10:49:23;;;;;;;6.32;3.90;;;16.60;99.90;;;;;;5067338;28;20492;-59
2021/08/29 10:51:51;;;;;;;6.05;3.85;;;16.50;99.90;;;;;;5068979;28;20818;-59
2021/08/29 10:54:17;;;;;;;6.47;4.00;;;16.50;99.90;;;;;;5068163;28;20376;-59
2021/08/29 10:56:43;;;;;;;7.50;4.28;;;16.60;99.90;;;;;;5068755;28;20441;-58
2021/08/29 10:59:09;;;;;;;7.17;4.77;;;16.70;99.90;;;;;;5068138;28;20449;-60
2021/08/29 11:01:42;;;;;;;6.53;3.95;;;17.00;99.90;;;;;;5067719;28;20719;-60
2021/08/29 11:04:26;;;;;;;7.80;4.45;;;17.30;99.90;;;;;;5065250;28;20880;-60
2021/08/29 11:06:59;;;;;;;7.40;4.68;;;18.70;99.90;;;;;;5067314;28;20375;-61
2021/08/29 11:09:40;;;;;;;7.00;4.80;;;18.00;99.90;;;;;;5067655;28;20406;-60
2021/08/29 11:12:12;;;;;;;8.10;5.10;;;18.10;99.90;;;;;;5067835;28;20398;-58
2021/08/29 11:14:47;;;;;;;6.90;4.22;;;17.50;99.90;;;;;;5068266;28;20386;-60
2021/08/29 11:17:22;;;;;;;7.80;5.00;;;17.20;99.90;;;;;;5067484;28;20418;-59
2021/08/29 11:19:53;;;;;;;7.40;4.90;;;17.00;99.90;;;;;;5068643;28;20485;-60
2021/08/29 11:22:24;;;;;;;7.63;4.78;;;17.30;99.90;;;;;;5066981;28;20380;-59
2021/08/29 11:24:54;;;;;;;7.78;4.90;;;17.40;99.90;;;;;;5068409;28;20403;-60
2021/08/29 11:27:44;;;;;;;8.30;4.80;;;17.30;99.90;;;;;;5068007;28;20387;-61
2021/08/29 11:30:16;;;;;;;7.68;4.95;;;17.30;99.90;;;;;;5068584;28;20407;-61
2021/08/29 11:32:59;;;;;;;7.60;4.90;;;17.30;99.90;;;;;;5072619;28;20850;-60
2021/08/29 11:35:31;;;;;;;9.38;5.38;;;16.10;99.90;;;;;;5072751;28;20390;-59
2021/08/29 11:38:09;;;;;;;7.20;4.63;;;17.70;99.90;;;;;;5072524;28;20384;-60
2021/08/29 11:40:46;;;;;;;8.25;4.82;;;17.40;99.90;;;;;;5072593;28;20411;-60
2021/08/29 11:43:28;;;;;;;7.35;4.45;;;17.00;99.90;;;;;;5069989;28;20853;-60
2021/08/29 11:46:01;;;;;;;6.80;3.90;;;17.20;99.90;;;;;;5072335;28;20470;-60
2021/08/29 11:48:32;;;;;;;5.88;3.65;;;17.10;99.90;;;;;;5072564;28;20391;-60
2021/08/29 11:50:59;;;;;;;6.20;3.60;;;17.30;99.90;;;;;;5071165;28;20987;-59
2021/08/29 11:53:26;;;;;;;6.33;3.50;;;17.20;99.90;;;;;;5072232;28;20376;-59
2021/08/29 11:55:56;;;;;;;6.22;3.60;;;16.90;99.90;;;;;;5071866;28;20375;-59
2021/08/29 11:58:23;;;;;;;6.30;3.37;;;17.20;99.90;;;;;;5071109;28;20399;-59
2021/08/29 12:00:50;;;;;;;7.33;3.90;;;17.20;99.90;;;;;;5071930;28;20399;-60
2021/08/29 12:03:16;;;;;;;7.38;3.72;;;17.30;99.90;;;;;;5071454;28;20391;-59
2021/08/29 12:06:03;;;;;;;6.85;4.35;;;17.40;99.90;;;;;;5071647;28;20384;-59
2021/08/29 12:08:58;;;;;;;6.10;3.40;;;17.50;99.90;;;;;;5072095;28;20379;-60
2021/08/29 12:11:27;;;;;;;6.67;3.70;;;17.50;99.90;;;;;;5070125;28;20384;-59
2021/08/29 12:13:54;;;;;;;7.35;4.00;;;17.70;99.90;;;;;;5071579;28;20379;-60
2021/08/29 12:16:20;;;;;;;9.18;4.75;;;17.40;99.90;;;;;;5070624;28;21005;-60
2021/08/29 12:18:47;;;;;;;6.93;4.10;;;17.20;99.90;;;;;;5071547;28;20419;-61
2021/08/29 12:21:14;;;;;;;6.90;3.80;;;17.30;99.90;;;;;;5070832;28;20433;-60
2021/08/29 12:23:41;;;;;;;7.38;4.20;;;17.50;99.90;;;;;;5072157;28;20427;-59
2021/08/29 12:26:10;;;;;;;7.70;4.50;;;17.10;99.90;;;;;;5070613;28;20368;-58
2021/08/29 12:28:36;;;;;;;8.50;5.10;;;16.60;99.90;;;;;;5071652;28;20400;-58
2021/08/29 12:31:03;;;;;;;7.65;4.50;;;16.60;99.90;;;;;;5070561;28;20376;-58
2021/08/29 12:33:30;;;;;;;8.00;4.70;;;16.30;99.90;;;;;;5071522;28;20376;-58
2021/08/29 12:35:56;;;;;;;8.07;4.80;;;16.40;99.90;;;;;;5069906;28;20508;-58
2021/08/29 12:38:25;;;;;;;8.10;4.80;;;16.50;99.90;;;;;;5070753;28;20829;-58
2021/08/29 12:40:52;;;;;;;8.40;4.97;;;16.60;99.90;;;;;;5069019;28;20512;-58
2021/08/29 12:43:18;;;;;;;9.30;5.07;;;16.50;99.90;;;;;;5070152;28;20547;-59
2021/08/29 12:45:44;;;;;;;8.18;4.68;;;16.50;99.90;;;;;;5070828;28;20391;-59
2021/08/29 12:48:10;;;;;;;9.67;4.73;;;16.30;99.90;;;;;;5070465;28;20486;-58